createdAt,value
2019-03-23T00:00:32.645Z,1023.72
2019-03-23T00:01:32.637Z,1023.68
2019-03-23T00:02:32.619Z,1023.67
2019-03-23T00:03:32.637Z,1023.67
2019-03-23T00:04:32.758Z,1023.67
2019-03-23T00:05:32.616Z,1023.65
2019-03-23T00:06:32.579Z,1023.64
2019-03-23T00:07:32.574Z,1023.64
2019-03-23T00:08:32.560Z,1023.62
2019-03-23T00:09:32.571Z,1023.57
2019-03-23T00:10:32.533Z,1023.56
2019-03-23T00:11:32.523Z,1023.52
2019-03-23T00:12:32.510Z,1023.55
2019-03-23T00:13:32.509Z,1023.52
2019-03-23T00:14:32.591Z,1023.49
2019-03-23T00:15:32.496Z,1023.49
2019-03-23T00:16:32.471Z,1023.53
2019-03-23T00:17:32.463Z,1023.52
2019-03-23T00:18:32.455Z,1023.52
2019-03-23T00:19:32.452Z,1023.54
2019-03-23T00:20:32.427Z,1023.55
2019-03-23T00:21:32.406Z,1023.49
2019-03-23T00:22:32.398Z,1023.51
2019-03-23T00:23:32.385Z,1023.44
2019-03-23T00:24:32.417Z,1023.44
2019-03-23T00:25:32.361Z,1023.39
2019-03-23T00:26:32.366Z,1023.42
2019-03-23T00:27:32.519Z,1023.46
2019-03-23T00:28:32.339Z,1023.47
2019-03-23T00:29:32.341Z,1023.47
2019-03-23T00:30:32.319Z,1023.46
2019-03-23T00:31:32.297Z,1023.41
2019-03-23T00:32:32.301Z,1023.40
2019-03-23T00:33:32.276Z,1023.39
2019-03-23T00:34:32.280Z,1023.39
2019-03-23T00:35:32.249Z,1023.38
2019-03-23T00:36:40.998Z,1023.35
2019-03-23T00:37:33.226Z,1023.32
2019-03-23T00:38:32.231Z,1023.31
2019-03-23T00:39:32.238Z,1023.29
2019-03-23T00:40:32.194Z,1023.34
2019-03-23T00:41:32.195Z,1023.29
2019-03-23T00:42:32.178Z,1023.31
2019-03-23T00:43:32.178Z,1023.29
2019-03-23T00:44:32.178Z,1023.27
2019-03-23T00:45:32.156Z,1023.26
2019-03-23T00:46:32.127Z,1023.24
2019-03-23T00:47:32.140Z,1023.22
2019-03-23T00:48:32.108Z,1023.15
2019-03-23T00:49:32.126Z,1023.14
2019-03-23T00:50:32.094Z,1023.13
2019-03-23T00:51:32.070Z,1023.13
2019-03-23T00:52:32.069Z,1023.09
2019-03-23T00:53:32.056Z,1023.08
2019-03-23T00:54:32.047Z,1023.08
2019-03-23T00:55:32.054Z,1023.04
2019-03-23T00:56:32.010Z,1022.98
2019-03-23T00:57:32.003Z,1022.99
2019-03-23T00:58:32.001Z,1022.99
2019-03-23T00:59:31.982Z,1023.08
2019-03-23T01:00:31.993Z,1023.03
2019-03-23T01:01:31.984Z,1023.04
2019-03-23T01:02:31.947Z,1023.00
2019-03-23T01:03:31.936Z,1023.00
2019-03-23T01:04:31.940Z,1023.00
2019-03-23T01:05:32.017Z,1023.00
2019-03-23T01:06:31.916Z,1022.99
2019-03-23T01:07:31.895Z,1023.02
2019-03-23T01:08:31.884Z,1022.98
2019-03-23T01:09:31.868Z,1022.94
2019-03-23T01:10:31.879Z,1023.01
2019-03-23T01:11:31.865Z,1022.94
2019-03-23T01:12:31.848Z,1022.97
2019-03-23T01:13:31.870Z,1022.96
2019-03-23T01:14:31.813Z,1022.97
2019-03-23T01:15:32.073Z,1022.89
2019-03-23T01:16:31.807Z,1022.93
2019-03-23T01:17:31.797Z,1022.87
2019-03-23T01:18:31.762Z,1022.86
2019-03-23T01:19:31.771Z,1022.84
2019-03-23T01:20:31.770Z,1022.85
2019-03-23T01:21:31.735Z,1022.82
2019-03-23T01:22:31.723Z,1022.81
2019-03-23T01:23:31.726Z,1022.80
2019-03-23T01:24:31.706Z,1022.77
2019-03-23T01:25:31.709Z,1022.70
2019-03-23T01:26:31.676Z,1022.70
2019-03-23T01:27:31.679Z,1022.75
2019-03-23T01:28:31.660Z,1022.68
2019-03-23T01:29:31.664Z,1022.68
2019-03-23T01:30:31.661Z,1022.66
2019-03-23T01:31:31.650Z,1022.62
2019-03-23T01:32:31.609Z,1022.62
2019-03-23T01:33:31.594Z,1022.64
2019-03-23T01:34:31.723Z,1022.64
2019-03-23T01:35:31.603Z,1022.67
2019-03-23T01:36:31.568Z,1022.68
2019-03-23T01:37:31.549Z,1022.68
2019-03-23T01:38:31.545Z,1022.69
2019-03-23T01:39:31.535Z,1022.68
2019-03-23T01:40:31.550Z,1022.71
2019-03-23T01:41:31.507Z,1022.71
2019-03-23T01:42:31.501Z,1022.68
2019-03-23T01:43:31.490Z,1022.69
2019-03-23T01:44:31.479Z,1022.68
2019-03-23T01:45:31.487Z,1022.64
2019-03-23T01:46:31.463Z,1022.63
2019-03-23T01:47:31.444Z,1022.59
2019-03-23T01:48:31.430Z,1022.58
2019-03-23T01:49:31.415Z,1022.57
2019-03-23T01:50:31.442Z,1022.53
2019-03-23T01:51:31.399Z,1022.54
2019-03-23T01:52:31.403Z,1022.54
2019-03-23T01:53:31.377Z,1022.46
2019-03-23T01:54:31.363Z,1022.47
2019-03-23T01:55:31.563Z,1022.50
2019-03-23T01:56:31.338Z,1022.45
2019-03-23T01:57:31.339Z,1022.43
2019-03-23T01:58:31.316Z,1022.45
2019-03-23T01:59:31.302Z,1022.37
2019-03-23T02:00:31.317Z,1022.41
2019-03-23T02:01:31.288Z,1022.38
2019-03-23T02:02:31.272Z,1022.39
2019-03-23T02:03:31.273Z,1022.40
2019-03-23T02:04:31.244Z,1022.37
2019-03-23T02:05:31.293Z,1022.38
2019-03-23T02:06:31.229Z,1022.39
2019-03-23T02:07:31.238Z,1022.37
2019-03-23T02:08:31.208Z,1022.35
2019-03-23T02:09:31.217Z,1022.32
2019-03-23T02:10:31.254Z,1022.36
2019-03-23T02:11:31.172Z,1022.30
2019-03-23T02:12:31.162Z,1022.33
2019-03-23T02:13:31.145Z,1022.34
2019-03-23T02:14:31.139Z,1022.31
2019-03-23T02:15:31.158Z,1022.28
2019-03-23T02:16:31.114Z,1022.29
2019-03-23T02:17:31.106Z,1022.25
2019-03-23T02:18:31.099Z,1022.25
2019-03-23T02:19:31.083Z,1022.28
2019-03-23T02:20:31.087Z,1022.29
2019-03-23T02:21:31.148Z,1022.30
2019-03-23T02:22:31.048Z,1022.30
2019-03-23T02:23:31.039Z,1022.34
2019-03-23T02:24:31.035Z,1022.30
2019-03-23T02:25:31.042Z,1022.28
2019-03-23T02:26:31.053Z,1022.33
2019-03-23T02:27:30.996Z,1022.26
2019-03-23T02:28:30.981Z,1022.24
2019-03-23T02:29:30.972Z,1022.28
2019-03-23T02:30:31.010Z,1022.26
2019-03-23T02:31:32.061Z,1022.21
2019-03-23T02:32:31.023Z,1022.22
2019-03-23T02:33:30.924Z,1022.18
2019-03-23T02:34:30.919Z,1022.20
2019-03-23T02:35:30.945Z,1022.14
2019-03-23T02:36:30.914Z,1022.17
2019-03-23T02:37:30.884Z,1022.12
2019-03-23T02:38:30.870Z,1022.20
2019-03-23T02:39:30.870Z,1022.16
2019-03-23T02:40:30.849Z,1022.19
2019-03-23T02:41:30.869Z,1022.16
2019-03-23T02:42:30.822Z,1022.19
2019-03-23T02:43:30.839Z,1022.24
2019-03-23T02:44:30.813Z,1022.21
2019-03-23T02:45:30.823Z,1022.23
2019-03-23T02:46:30.816Z,1022.24
2019-03-23T02:47:30.769Z,1022.23
2019-03-23T02:48:30.761Z,1022.18
2019-03-23T02:49:30.753Z,1022.22
2019-03-23T02:50:30.773Z,1022.18
2019-03-23T02:51:30.789Z,1022.19
2019-03-23T02:52:30.729Z,1022.18
2019-03-23T02:53:30.708Z,1022.17
2019-03-23T02:54:30.686Z,1022.18
2019-03-23T02:55:30.680Z,1022.18
2019-03-23T02:56:30.695Z,1022.18
2019-03-23T02:57:30.666Z,1022.23
2019-03-23T02:58:30.643Z,1022.28
2019-03-23T02:59:30.638Z,1022.24
2019-03-23T03:00:30.629Z,1022.32
2019-03-23T03:01:30.849Z,1022.30
2019-03-23T03:02:30.602Z,1022.28
2019-03-23T03:03:30.604Z,1022.27
2019-03-23T03:04:30.577Z,1022.29
2019-03-23T03:05:30.569Z,1022.31
2019-03-23T03:06:30.571Z,1022.24
2019-03-23T03:07:41.171Z,1022.25
2019-03-23T03:08:31.528Z,1022.25
2019-03-23T03:09:30.527Z,1022.24
2019-03-23T03:10:30.515Z,1022.22
2019-03-23T03:11:30.541Z,1022.26
2019-03-23T03:12:30.497Z,1022.21
2019-03-23T03:13:30.481Z,1022.23
2019-03-23T03:14:30.621Z,1022.19
2019-03-23T03:15:30.454Z,1022.20
2019-03-23T03:16:30.441Z,1022.21
2019-03-23T03:17:30.449Z,1022.22
2019-03-23T03:18:30.426Z,1022.22
2019-03-23T03:19:30.408Z,1022.18
2019-03-23T03:20:30.408Z,1022.21
2019-03-23T03:21:30.382Z,1022.19
2019-03-23T03:22:30.423Z,1022.24
2019-03-23T03:23:30.395Z,1022.22
2019-03-23T03:24:30.348Z,1022.23
2019-03-23T03:25:30.343Z,1022.20
2019-03-23T03:26:30.340Z,1022.15
2019-03-23T03:27:30.338Z,1022.19
2019-03-23T03:28:30.304Z,1022.15
2019-03-23T03:29:30.299Z,1022.15
2019-03-23T03:30:30.285Z,1022.15
2019-03-23T03:31:30.284Z,1022.14
2019-03-23T03:32:30.313Z,1022.15
2019-03-23T03:33:30.261Z,1022.16
2019-03-23T03:34:30.245Z,1022.14
2019-03-23T03:35:30.230Z,1022.15
2019-03-23T03:36:30.378Z,1022.17
2019-03-23T03:37:30.255Z,1022.17
2019-03-23T03:38:30.199Z,1022.20
2019-03-23T03:39:30.186Z,1022.25
2019-03-23T03:40:30.180Z,1022.21
2019-03-23T03:41:30.176Z,1022.20
2019-03-23T03:42:30.180Z,1022.18
2019-03-23T03:43:30.158Z,1022.22
2019-03-23T03:44:30.231Z,1022.19
2019-03-23T03:45:30.141Z,1022.21
2019-03-23T03:46:30.123Z,1022.18
2019-03-23T03:47:30.134Z,1022.11
2019-03-23T03:48:30.083Z,1022.11
2019-03-23T03:49:30.070Z,1022.09
2019-03-23T03:50:30.064Z,1022.10
2019-03-23T03:51:30.056Z,1022.05
2019-03-23T03:52:30.038Z,1022.05
2019-03-23T03:53:30.048Z,1022.09
2019-03-23T03:54:30.008Z,1022.07
2019-03-23T03:55:30.004Z,1022.07
2019-03-23T03:56:29.999Z,1022.09
2019-03-23T03:57:29.980Z,1022.10
2019-03-23T03:58:29.986Z,1022.03
2019-03-23T03:59:29.960Z,1022.00
2019-03-23T04:00:29.952Z,1022.02
2019-03-23T04:01:29.931Z,1022.04
2019-03-23T04:02:29.927Z,1021.99
2019-03-23T04:03:29.934Z,1022.01
2019-03-23T04:04:29.900Z,1021.99
2019-03-23T04:05:29.893Z,1022.04
2019-03-23T04:06:29.877Z,1022.03
2019-03-23T04:07:29.868Z,1022.00
2019-03-23T04:08:29.981Z,1022.00
2019-03-23T04:09:29.847Z,1022.01
2019-03-23T04:10:29.829Z,1022.00
2019-03-23T04:11:29.830Z,1021.94
2019-03-23T04:12:29.807Z,1021.91
2019-03-23T04:13:29.818Z,1021.93
2019-03-23T04:14:29.790Z,1021.92
2019-03-23T04:15:29.783Z,1021.92
2019-03-23T04:16:29.768Z,1021.94
2019-03-23T04:17:29.768Z,1021.95
2019-03-23T04:18:29.770Z,1021.86
2019-03-23T04:19:29.730Z,1021.88
2019-03-23T04:20:29.731Z,1021.85
2019-03-23T04:21:29.723Z,1021.85
2019-03-23T04:22:29.719Z,1021.82
2019-03-23T04:23:29.714Z,1021.86
2019-03-23T04:24:29.675Z,1021.83
2019-03-23T04:25:29.679Z,1021.81
2019-03-23T04:26:29.689Z,1021.86
2019-03-23T04:27:29.647Z,1021.82
2019-03-23T04:28:29.665Z,1021.88
2019-03-23T04:29:29.615Z,1021.85
2019-03-23T04:30:29.615Z,1021.90
2019-03-23T04:31:29.597Z,1021.94
2019-03-23T04:32:29.587Z,1021.87
2019-03-23T04:33:29.600Z,1021.91
2019-03-23T04:34:29.570Z,1021.90
2019-03-23T04:35:29.554Z,1021.93
2019-03-23T04:36:29.554Z,1021.96
2019-03-23T04:37:29.533Z,1021.95
2019-03-23T04:38:29.537Z,1021.94
2019-03-23T04:39:29.533Z,1021.90
2019-03-23T04:40:29.509Z,1021.88
2019-03-23T04:41:29.497Z,1021.86
2019-03-23T04:42:29.486Z,1021.86
2019-03-23T04:43:29.480Z,1021.85
2019-03-23T04:44:29.450Z,1021.88
2019-03-23T04:45:29.438Z,1021.90
2019-03-23T04:46:29.428Z,1021.89
2019-03-23T04:47:29.420Z,1021.87
2019-03-23T04:48:29.426Z,1021.86
2019-03-23T04:49:29.398Z,1021.83
2019-03-23T04:50:29.391Z,1021.85
2019-03-23T04:51:29.372Z,1021.85
2019-03-23T04:52:29.362Z,1021.86
2019-03-23T04:53:29.374Z,1021.89
2019-03-23T04:54:29.341Z,1021.83
2019-03-23T04:55:29.329Z,1021.91
2019-03-23T04:56:29.316Z,1021.88
2019-03-23T04:57:29.306Z,1021.91
2019-03-23T04:58:29.314Z,1021.88
2019-03-23T04:59:29.286Z,1021.86
2019-03-23T05:00:29.272Z,1021.88
2019-03-23T05:01:29.280Z,1021.91
2019-03-23T05:02:29.253Z,1021.86
2019-03-23T05:03:29.261Z,1021.89
2019-03-23T05:04:29.233Z,1021.87
2019-03-23T05:05:29.234Z,1021.87
2019-03-23T05:06:29.209Z,1021.83
2019-03-23T05:07:29.193Z,1021.80
2019-03-23T05:08:33.507Z,1021.82
2019-03-23T05:09:29.168Z,1021.77
2019-03-23T05:10:29.157Z,1021.76
2019-03-23T05:11:29.150Z,1021.78
2019-03-23T05:12:29.140Z,1021.76
2019-03-23T05:13:29.122Z,1021.74
2019-03-23T05:14:29.148Z,1021.74
2019-03-23T05:15:29.112Z,1021.75
2019-03-23T05:16:29.092Z,1021.71
2019-03-23T05:17:29.083Z,1021.71
2019-03-23T05:18:29.073Z,1021.73
2019-03-23T05:19:29.081Z,1021.69
2019-03-23T05:20:29.050Z,1021.69
2019-03-23T05:21:29.048Z,1021.68
2019-03-23T05:22:29.033Z,1021.66
2019-03-23T05:23:29.019Z,1021.67
2019-03-23T05:24:29.023Z,1021.67
2019-03-23T05:25:28.992Z,1021.62
2019-03-23T05:26:28.978Z,1021.64
2019-03-23T05:27:28.968Z,1021.64
2019-03-23T05:28:28.958Z,1021.66
2019-03-23T05:29:28.967Z,1021.64
2019-03-23T05:30:28.938Z,1021.68
2019-03-23T05:31:28.934Z,1021.67
2019-03-23T05:32:28.918Z,1021.63
2019-03-23T05:33:28.904Z,1021.65
2019-03-23T05:34:28.918Z,1021.61
2019-03-23T05:35:28.883Z,1021.59
2019-03-23T05:36:28.864Z,1021.61
2019-03-23T05:37:28.854Z,1021.60
2019-03-23T05:38:28.857Z,1021.53
2019-03-23T05:39:28.859Z,1021.60
2019-03-23T05:40:28.830Z,1021.56
2019-03-23T05:41:30.876Z,1021.52
2019-03-23T05:42:28.802Z,1021.52
2019-03-23T05:43:28.790Z,1021.56
2019-03-23T05:44:28.799Z,1021.54
2019-03-23T05:45:28.772Z,1021.60
2019-03-23T05:46:28.758Z,1021.59
2019-03-23T05:47:28.744Z,1021.62
2019-03-23T05:48:28.741Z,1021.68
2019-03-23T05:49:28.746Z,1021.65
2019-03-23T05:50:28.716Z,1021.69
2019-03-23T05:51:28.700Z,1021.70
2019-03-23T05:52:28.703Z,1021.68
2019-03-23T05:53:28.672Z,1021.65
2019-03-23T05:54:28.685Z,1021.65
2019-03-23T05:55:28.655Z,1021.66
2019-03-23T05:56:28.657Z,1021.62
2019-03-23T05:57:28.634Z,1021.63
2019-03-23T05:58:28.627Z,1021.56
2019-03-23T05:59:28.643Z,1021.60
2019-03-23T06:00:28.598Z,1021.60
2019-03-23T06:01:28.584Z,1021.61
2019-03-23T06:02:28.572Z,1021.60
2019-03-23T06:03:28.566Z,1021.64
2019-03-23T06:04:28.554Z,1021.63
2019-03-23T06:05:28.568Z,1021.59
2019-03-23T06:06:28.535Z,1021.59
2019-03-23T06:07:28.524Z,1021.64
2019-03-23T06:08:28.506Z,1021.56
2019-03-23T06:09:28.496Z,1021.58
2019-03-23T06:10:28.612Z,1021.57
2019-03-23T06:11:28.474Z,1021.60
2019-03-23T06:12:28.467Z,1021.61
2019-03-23T06:13:28.461Z,1021.61
2019-03-23T06:14:28.436Z,1021.65
2019-03-23T06:15:28.444Z,1021.64
2019-03-23T06:16:28.422Z,1021.61
2019-03-23T06:17:28.406Z,1021.62
2019-03-23T06:18:28.396Z,1021.63
2019-03-23T06:19:28.396Z,1021.59
2019-03-23T06:20:28.382Z,1021.60
2019-03-23T06:21:28.364Z,1021.62
2019-03-23T06:22:28.352Z,1021.60
2019-03-23T06:23:28.340Z,1021.62
2019-03-23T06:24:28.334Z,1021.65
2019-03-23T06:25:28.338Z,1021.61
2019-03-23T06:26:28.305Z,1021.61
2019-03-23T06:27:28.298Z,1021.62
2019-03-23T06:28:28.278Z,1021.62
2019-03-23T06:29:28.276Z,1021.60
2019-03-23T06:30:28.292Z,1021.64
2019-03-23T06:31:28.248Z,1021.61
2019-03-23T06:32:28.248Z,1021.64
2019-03-23T06:33:28.222Z,1021.58
2019-03-23T06:34:28.220Z,1021.60
2019-03-23T06:35:28.226Z,1021.64
2019-03-23T06:36:28.214Z,1021.64
2019-03-23T06:37:28.182Z,1021.65
2019-03-23T06:38:28.170Z,1021.64
2019-03-23T06:39:28.172Z,1021.63
2019-03-23T06:40:28.184Z,1021.62
2019-03-23T06:41:28.136Z,1021.63
2019-03-23T06:42:28.135Z,1021.63
2019-03-23T06:43:28.113Z,1021.67
2019-03-23T06:44:28.113Z,1021.67
2019-03-23T06:45:28.119Z,1021.67
2019-03-23T06:46:28.100Z,1021.69
2019-03-23T06:47:28.085Z,1021.68
2019-03-23T06:48:28.058Z,1021.66
2019-03-23T06:49:28.069Z,1021.70
2019-03-23T06:50:28.040Z,1021.73
2019-03-23T06:51:28.065Z,1021.73
2019-03-23T06:52:28.019Z,1021.73
2019-03-23T06:53:28.004Z,1021.68
2019-03-23T06:54:28.074Z,1021.63
2019-03-23T06:55:28.007Z,1021.69
2019-03-23T06:56:28.004Z,1021.66
2019-03-23T06:57:27.960Z,1021.65
2019-03-23T06:58:27.962Z,1021.68
2019-03-23T06:59:28.005Z,1021.70
2019-03-23T07:00:27.966Z,1021.64
2019-03-23T07:01:27.931Z,1021.67
2019-03-23T07:02:27.903Z,1021.67
2019-03-23T07:03:27.904Z,1021.62
2019-03-23T07:04:27.952Z,1021.64
2019-03-23T07:05:27.862Z,1021.61
2019-03-23T07:06:27.867Z,1021.64
2019-03-23T07:07:27.853Z,1021.64
2019-03-23T07:08:32.142Z,1021.60
2019-03-23T07:09:27.830Z,1021.60
2019-03-23T07:10:27.806Z,1021.64
2019-03-23T07:11:27.898Z,1021.59
2019-03-23T07:12:27.796Z,1021.59
2019-03-23T07:13:27.794Z,1021.60
2019-03-23T07:14:27.762Z,1021.61
2019-03-23T07:15:27.750Z,1021.60
2019-03-23T07:16:27.758Z,1021.59
2019-03-23T07:17:27.728Z,1021.62
2019-03-23T07:18:27.726Z,1021.64
2019-03-23T07:19:27.703Z,1021.63
2019-03-23T07:20:27.696Z,1021.59
2019-03-23T07:21:27.702Z,1021.57
2019-03-23T07:22:27.685Z,1021.48
2019-03-23T07:23:27.664Z,1021.50
2019-03-23T07:24:27.657Z,1021.50
2019-03-23T07:25:27.636Z,1021.50
2019-03-23T07:26:27.646Z,1021.50
2019-03-23T07:27:27.620Z,1021.52
2019-03-23T07:28:27.603Z,1021.50
2019-03-23T07:29:27.607Z,1021.52
2019-03-23T07:30:27.606Z,1021.55
2019-03-23T07:31:27.605Z,1021.58
2019-03-23T07:32:27.561Z,1021.53
2019-03-23T07:33:27.550Z,1021.57
2019-03-23T07:34:27.538Z,1021.57
2019-03-23T07:35:27.543Z,1021.62
2019-03-23T07:36:27.544Z,1021.63
2019-03-23T07:37:27.508Z,1021.65
2019-03-23T07:38:27.490Z,1021.65
2019-03-23T07:39:30.361Z,1021.68
2019-03-23T07:40:27.473Z,1021.63
2019-03-23T07:41:27.487Z,1021.62
2019-03-23T07:42:27.448Z,1021.65
2019-03-23T07:43:27.436Z,1021.59
2019-03-23T07:44:27.424Z,1021.68
2019-03-23T07:45:27.415Z,1021.63
2019-03-23T07:46:27.420Z,1021.67
2019-03-23T07:47:27.403Z,1021.67
2019-03-23T07:48:28.531Z,1021.63
2019-03-23T07:49:27.373Z,1021.68
2019-03-23T07:50:27.367Z,1021.63
2019-03-23T07:51:27.375Z,1021.60
2019-03-23T07:52:27.346Z,1021.62
2019-03-23T07:53:27.322Z,1021.65
2019-03-23T07:54:27.320Z,1021.65
2019-03-23T07:55:27.302Z,1021.68
2019-03-23T07:56:27.308Z,1021.73
2019-03-23T07:57:27.278Z,1021.67
2019-03-23T07:58:27.291Z,1021.72
2019-03-23T07:59:27.254Z,1021.73
2019-03-23T08:00:27.243Z,1021.76
2019-03-23T08:01:27.255Z,1021.73
2019-03-23T08:02:27.233Z,1021.77
2019-03-23T08:03:27.267Z,1021.70
2019-03-23T08:04:27.212Z,1021.69
2019-03-23T08:05:27.193Z,1021.71
2019-03-23T08:06:27.194Z,1021.73
2019-03-23T08:07:27.166Z,1021.74
2019-03-23T08:08:27.156Z,1021.75
2019-03-23T08:09:37.155Z,1021.77
2019-03-23T08:10:28.147Z,1021.76
2019-03-23T08:11:27.139Z,1021.76
2019-03-23T08:12:27.109Z,1021.73
2019-03-23T08:13:27.688Z,1021.74
2019-03-23T08:14:27.091Z,1021.75
2019-03-23T08:15:27.086Z,1021.71
2019-03-23T08:16:27.128Z,1021.72
2019-03-23T08:17:27.057Z,1021.64
2019-03-23T08:18:27.050Z,1021.65
2019-03-23T08:19:27.039Z,1021.67
2019-03-23T08:20:27.015Z,1021.62
2019-03-23T08:21:27.027Z,1021.65
2019-03-23T08:22:27.000Z,1021.67
2019-03-23T08:23:26.990Z,1021.64
2019-03-23T08:24:26.982Z,1021.61
2019-03-23T08:25:26.973Z,1021.62
2019-03-23T08:26:26.980Z,1021.61
2019-03-23T08:27:26.969Z,1021.63
2019-03-23T08:28:26.934Z,1021.61
2019-03-23T08:29:26.914Z,1021.57
2019-03-23T08:30:26.908Z,1021.64
2019-03-23T08:31:26.893Z,1021.64
2019-03-23T08:32:26.904Z,1021.62
2019-03-23T08:33:26.874Z,1021.59
2019-03-23T08:34:26.881Z,1021.62
2019-03-23T08:35:26.849Z,1021.58
2019-03-23T08:36:26.843Z,1021.57
2019-03-23T08:37:26.851Z,1021.58
2019-03-23T08:38:26.824Z,1021.56
2019-03-23T08:39:26.812Z,1021.53
2019-03-23T08:40:26.793Z,1021.49
2019-03-23T08:41:26.798Z,1021.49
2019-03-23T08:42:26.794Z,1021.54
2019-03-23T08:43:26.759Z,1021.52
2019-03-23T08:44:26.754Z,1021.48
2019-03-23T08:45:26.734Z,1021.53
2019-03-23T08:46:26.724Z,1021.54
2019-03-23T08:47:26.736Z,1021.53
2019-03-23T08:48:26.716Z,1021.57
2019-03-23T08:49:28.598Z,1021.53
2019-03-23T08:50:26.697Z,1021.58
2019-03-23T08:51:26.723Z,1021.57
2019-03-23T08:52:28.890Z,1021.54
2019-03-23T08:53:26.649Z,1021.51
2019-03-23T08:54:26.633Z,1021.48
2019-03-23T08:55:26.630Z,1021.47
2019-03-23T08:56:26.614Z,1021.49
2019-03-23T08:57:26.638Z,1021.45
2019-03-23T08:58:26.589Z,1021.44
2019-03-23T08:59:26.578Z,1021.41
2019-03-23T09:00:26.587Z,1021.42
2019-03-23T09:01:26.562Z,1021.41
2019-03-23T09:02:26.553Z,1021.37
2019-03-23T09:03:26.550Z,1021.44
2019-03-23T09:04:26.518Z,1021.40
2019-03-23T09:05:26.510Z,1021.39
2019-03-23T09:06:26.546Z,1021.33
2019-03-23T09:07:26.497Z,1021.31
2019-03-23T09:08:26.494Z,1021.34
2019-03-23T09:09:26.489Z,1021.38
2019-03-23T09:10:26.452Z,1021.33
2019-03-23T09:11:26.437Z,1021.30
2019-03-23T09:12:26.432Z,1021.37
2019-03-23T09:13:26.441Z,1021.40
2019-03-23T09:14:26.415Z,1021.36
2019-03-23T09:15:26.391Z,1021.34
2019-03-23T09:16:26.400Z,1021.39
2019-03-23T09:17:26.371Z,1021.42
2019-03-23T09:18:26.384Z,1021.40
2019-03-23T09:19:26.351Z,1021.35
2019-03-23T09:20:26.340Z,1021.37
2019-03-23T09:21:26.325Z,1021.41
2019-03-23T09:22:26.317Z,1021.44
2019-03-23T09:23:26.326Z,1021.43
2019-03-23T09:24:26.310Z,1021.42
2019-03-23T09:25:26.282Z,1021.44
2019-03-23T09:26:26.269Z,1021.44
2019-03-23T09:27:26.258Z,1021.44
2019-03-23T09:28:26.273Z,1021.46
2019-03-23T09:29:26.239Z,1021.46
2019-03-23T09:30:26.224Z,1021.47
2019-03-23T09:31:26.210Z,1021.48
2019-03-23T09:32:26.198Z,1021.48
2019-03-23T09:33:26.230Z,1021.45
2019-03-23T09:34:26.182Z,1021.46
2019-03-23T09:35:26.176Z,1021.46
2019-03-23T09:36:26.156Z,1021.46
2019-03-23T09:37:26.150Z,1021.43
2019-03-23T09:38:26.174Z,1021.47
2019-03-23T09:39:26.122Z,1021.49
2019-03-23T09:40:26.120Z,1021.53
2019-03-23T09:41:26.112Z,1021.49
2019-03-23T09:42:26.086Z,1021.53
2019-03-23T09:43:26.099Z,1021.54
2019-03-23T09:44:26.075Z,1021.50
2019-03-23T09:45:26.055Z,1021.51
2019-03-23T09:46:26.043Z,1021.53
2019-03-23T09:47:26.038Z,1021.54
2019-03-23T09:48:26.051Z,1021.58
2019-03-23T09:49:26.022Z,1021.58
2019-03-23T09:50:26.005Z,1021.54
2019-03-23T09:51:26.221Z,1021.58
2019-03-23T09:52:25.985Z,1021.58
2019-03-23T09:53:25.968Z,1021.60
2019-03-23T09:54:25.980Z,1021.57
2019-03-23T09:55:25.951Z,1021.61
2019-03-23T09:56:25.940Z,1021.63
2019-03-23T09:57:25.921Z,1021.65
2019-03-23T09:58:25.912Z,1021.62
2019-03-23T09:59:25.921Z,1021.63
2019-03-23T10:00:25.893Z,1021.65
2019-03-23T10:01:25.900Z,1021.59
2019-03-23T10:02:25.861Z,1021.62
2019-03-23T10:03:25.857Z,1021.63
2019-03-23T10:04:25.865Z,1021.63
2019-03-23T10:05:25.830Z,1021.56
2019-03-23T10:06:25.813Z,1021.64
2019-03-23T10:07:25.809Z,1021.63
2019-03-23T10:08:25.820Z,1021.61
2019-03-23T10:09:25.832Z,1021.63
2019-03-23T10:10:25.802Z,1021.70
2019-03-23T10:11:25.761Z,1021.62
2019-03-23T10:12:25.811Z,1021.69
2019-03-23T10:13:25.748Z,1021.70
2019-03-23T10:14:25.775Z,1021.68
2019-03-23T10:15:25.734Z,1021.72
2019-03-23T10:16:25.703Z,1021.74
2019-03-23T10:17:25.690Z,1021.76
2019-03-23T10:18:25.683Z,1021.75
2019-03-23T10:19:25.694Z,1021.71
2019-03-23T10:20:26.330Z,1021.75
2019-03-23T10:21:25.767Z,1021.76
2019-03-23T10:22:25.639Z,1021.72
2019-03-23T10:23:25.628Z,1021.79
2019-03-23T10:24:25.748Z,1021.70
2019-03-23T10:25:25.600Z,1021.74
2019-03-23T10:26:25.593Z,1021.78
2019-03-23T10:27:25.597Z,1021.76
2019-03-23T10:28:25.567Z,1021.74
2019-03-23T10:29:25.558Z,1021.76
2019-03-23T10:30:25.666Z,1021.76
2019-03-23T10:31:25.532Z,1021.77
2019-03-23T10:32:25.530Z,1021.80
2019-03-23T10:33:25.652Z,1021.77
2019-03-23T10:34:25.503Z,1021.77
2019-03-23T10:35:25.522Z,1021.85
2019-03-23T10:36:25.488Z,1021.81
2019-03-23T10:37:26.138Z,1021.84
2019-03-23T10:38:25.470Z,1021.78
2019-03-23T10:39:25.476Z,1021.78
2019-03-23T10:40:32.335Z,1021.68
2019-03-23T10:41:26.423Z,1021.76
2019-03-23T10:42:25.414Z,1021.79
2019-03-23T10:43:25.408Z,1021.74
2019-03-23T10:44:25.415Z,1021.77
2019-03-23T10:45:25.589Z,1021.77
2019-03-23T10:46:25.368Z,1021.72
2019-03-23T10:47:25.452Z,1021.75
2019-03-23T10:48:25.352Z,1021.81
2019-03-23T10:49:25.352Z,1021.77
2019-03-23T10:50:25.342Z,1021.79
2019-03-23T10:51:25.408Z,1021.80
2019-03-23T10:52:25.466Z,1021.82
2019-03-23T10:53:25.294Z,1021.84
2019-03-23T10:54:25.285Z,1021.78
2019-03-23T10:55:25.273Z,1021.85
2019-03-23T10:56:25.287Z,1021.81
2019-03-23T10:57:25.251Z,1021.78
2019-03-23T10:58:25.280Z,1021.78
2019-03-23T10:59:25.238Z,1021.77
2019-03-23T11:00:25.348Z,1021.81
2019-03-23T11:01:25.225Z,1021.73
2019-03-23T11:02:25.196Z,1021.75
2019-03-23T11:03:25.196Z,1021.78
2019-03-23T11:04:25.195Z,1021.84
2019-03-23T11:05:25.170Z,1021.84
2019-03-23T11:06:25.186Z,1021.83
2019-03-23T11:07:25.156Z,1021.90
2019-03-23T11:08:25.177Z,1021.88
2019-03-23T11:09:25.123Z,1021.86
2019-03-23T11:10:25.122Z,1021.85
2019-03-23T11:11:25.131Z,1021.81
2019-03-23T11:12:25.113Z,1021.83
2019-03-23T11:13:25.084Z,1021.84
2019-03-23T11:14:25.085Z,1021.84
2019-03-23T11:15:25.068Z,1021.82
2019-03-23T11:16:25.062Z,1021.84
2019-03-23T11:17:25.196Z,1021.85
2019-03-23T11:18:25.023Z,1021.79
2019-03-23T11:19:25.026Z,1021.81
2019-03-23T11:20:25.008Z,1021.80
2019-03-23T11:21:25.016Z,1021.82
2019-03-23T11:22:25.007Z,1021.82
2019-03-23T11:23:24.992Z,1021.87
2019-03-23T11:24:24.989Z,1021.83
2019-03-23T11:25:24.989Z,1021.79
2019-03-23T11:26:24.951Z,1021.81
2019-03-23T11:27:24.953Z,1021.77
2019-03-23T11:28:24.928Z,1021.78
2019-03-23T11:29:24.940Z,1021.77
2019-03-23T11:30:24.906Z,1021.77
2019-03-23T11:31:24.899Z,1021.79
2019-03-23T11:32:24.909Z,1021.83
2019-03-23T11:33:24.872Z,1021.85
2019-03-23T11:34:24.865Z,1021.86
2019-03-23T11:35:24.862Z,1021.87
2019-03-23T11:36:24.847Z,1021.86
2019-03-23T11:37:24.896Z,1021.86
2019-03-23T11:38:24.835Z,1021.85
2019-03-23T11:39:24.803Z,1021.87
2019-03-23T11:40:24.798Z,1021.87
2019-03-23T11:41:24.800Z,1021.88
2019-03-23T11:42:24.802Z,1021.89
2019-03-23T11:43:24.794Z,1021.90
2019-03-23T11:44:24.755Z,1021.86
2019-03-23T11:45:24.747Z,1021.85
2019-03-23T11:46:24.736Z,1021.88
2019-03-23T11:47:24.752Z,1021.88
2019-03-23T11:48:24.736Z,1021.87
2019-03-23T11:49:24.718Z,1021.88
2019-03-23T11:50:24.699Z,1021.89
2019-03-23T11:51:24.681Z,1021.87
2019-03-23T11:52:24.679Z,1021.87
2019-03-23T11:53:24.683Z,1021.90
2019-03-23T11:54:24.662Z,1021.94
2019-03-23T11:55:24.651Z,1021.90
2019-03-23T11:56:24.635Z,1021.96
2019-03-23T11:57:24.628Z,1021.97
2019-03-23T11:58:24.633Z,1022.03
2019-03-23T11:59:24.613Z,1022.06
2019-03-23T12:00:24.598Z,1022.07
2019-03-23T12:01:24.596Z,1022.05
2019-03-23T12:02:24.570Z,1022.03
2019-03-23T12:03:24.583Z,1022.12
2019-03-23T12:04:25.256Z,1022.09
2019-03-23T12:05:24.551Z,1022.05